Lakepark, Georgia
Current Conditions -  °F | °C
As of 2:53 PM on Thursday 20 Nov 2014 (Local Time) from KVLD Reporting Station
Few Clouds Few Clouds  
Wind Chill: 63°   Ceiling: Unl
Heat Index: 63°   Visibility: 10mi
Dew Point: 28°   Wind: 0mph
Humidity: 27%   Direction: NA
Pressure: 30.22"   Gusts: NA
Location:  30.7146°N, 83.1236°W
Report Text: KVLD 201953Z 00000KT 10SM FEW230 17/M02 A3022 RMK AO2 SLP243 T01721022 $
Loading
Personal Weather Stations






























Interactive Weather Map New forecast layout! Learn more

10-Day Weather Forecast

Advertisements
Track Severe Weather on mobile